createdAt,value
2019-06-10T00:00:13.547Z,38.94
2019-06-10T00:02:41.920Z,39.06
2019-06-10T00:05:11.628Z,39.15
2019-06-10T00:07:41.187Z,39.23
2019-06-10T00:10:12.000Z,39.30
2019-06-10T00:12:41.961Z,39.40
2019-06-10T00:15:12.291Z,39.50
2019-06-10T00:17:53.181Z,39.56
2019-06-10T00:20:13.534Z,39.67
2019-06-10T00:22:43.040Z,39.70
2019-06-10T00:25:12.525Z,39.79
2019-06-10T00:27:42.216Z,39.81
2019-06-10T00:30:12.326Z,39.86
2019-06-10T00:32:41.810Z,40.03
2019-06-10T00:35:12.306Z,40.13
2019-06-10T00:37:42.090Z,40.21
2019-06-10T00:40:14.124Z,40.28
2019-06-10T00:42:43.255Z,40.35
2019-06-10T00:45:17.853Z,40.38
2019-06-10T00:47:44.166Z,40.43
2019-06-10T00:50:14.808Z,40.50
2019-06-10T00:52:45.423Z,40.60
2019-06-10T00:55:15.117Z,40.64
2019-06-10T00:57:44.584Z,40.62
2019-06-10T01:00:24.922Z,40.80
2019-06-10T01:02:46.012Z,40.79
2019-06-10T01:05:15.493Z,40.79
2019-06-10T01:07:45.277Z,40.69
2019-06-10T01:10:15.429Z,40.76
2019-06-10T01:12:45.038Z,40.74
2019-06-10T01:15:15.343Z,40.76
2019-06-10T01:17:44.856Z,40.72
2019-06-10T01:20:16.052Z,40.77
2019-06-10T01:22:45.766Z,40.76
2019-06-10T01:25:15.317Z,40.85
2019-06-10T01:27:44.782Z,41.14
2019-06-10T01:30:21.797Z,41.18
2019-06-10T01:32:45.783Z,41.13
2019-06-10T01:35:15.880Z,41.18
2019-06-10T01:37:46.710Z,41.18
2019-06-10T01:40:17.871Z,41.20
2019-06-10T01:42:47.515Z,41.24
2019-06-10T01:45:17.383Z,41.19
2019-06-10T01:47:46.963Z,41.21
2019-06-10T01:50:17.686Z,41.23
2019-06-10T01:52:47.862Z,41.21
2019-06-10T01:55:18.279Z,41.18
2019-06-10T01:57:47.839Z,41.17
2019-06-10T02:00:23.307Z,41.17
2019-06-10T02:02:52.356Z,41.15
2019-06-10T02:05:22.921Z,41.22
2019-06-10T02:07:52.626Z,41.30
2019-06-10T02:10:23.023Z,41.25
2019-06-10T02:12:52.801Z,41.14
2019-06-10T02:15:22.784Z,41.07
2019-06-10T02:17:52.385Z,40.99
2019-06-10T02:20:23.845Z,40.97
2019-06-10T02:22:53.108Z,40.94
2019-06-10T02:25:23.006Z,40.86
2019-06-10T02:27:52.663Z,40.84
2019-06-10T02:30:35.789Z,40.80
2019-06-10T02:32:53.536Z,40.74
2019-06-10T02:35:30.476Z,40.57
2019-06-10T02:37:54.250Z,40.50
2019-06-10T02:40:31.797Z,40.42
2019-06-10T02:42:56.927Z,40.30
2019-06-10T02:45:32.340Z,40.24
2019-06-10T02:47:57.644Z,40.13
2019-06-10T02:50:55.583Z,40.14
2019-06-10T02:53:30.851Z,40.11
2019-06-10T02:55:56.253Z,40.07
2019-06-10T02:58:33.280Z,40.06
2019-06-10T03:00:57.072Z,39.96
2019-06-10T03:03:37.287Z,39.94
2019-06-10T03:05:57.871Z,39.91
2019-06-10T03:08:31.685Z,39.90
2019-06-10T03:10:58.611Z,39.93
2019-06-10T03:13:28.223Z,39.92
2019-06-10T03:16:03.582Z,39.96
2019-06-10T03:18:33.161Z,40.12
2019-06-10T03:21:02.830Z,40.13
2019-06-10T03:23:32.280Z,40.23
2019-06-10T03:26:04.033Z,40.24
2019-06-10T03:28:33.906Z,40.24
2019-06-10T03:31:05.904Z,40.20
2019-06-10T03:33:41.056Z,40.14
2019-06-10T03:36:05.837Z,40.13
2019-06-10T03:38:37.082Z,40.08
2019-06-10T03:41:06.544Z,40.05
2019-06-10T03:43:36.028Z,39.96
2019-06-10T03:46:05.523Z,39.84
2019-06-10T03:48:35.129Z,39.75
2019-06-10T03:51:04.604Z,39.66
2019-06-10T03:53:34.095Z,39.54
2019-06-10T03:56:03.694Z,39.48
2019-06-10T03:58:33.247Z,39.39
2019-06-10T04:01:03.319Z,39.24
2019-06-10T04:03:33.795Z,39.16
2019-06-10T04:06:04.023Z,39.10
2019-06-10T04:08:33.618Z,38.99
2019-06-10T04:11:03.249Z,38.79
2019-06-10T04:13:33.813Z,38.69
2019-06-10T04:16:03.569Z,38.63
2019-06-10T04:18:33.207Z,38.50
2019-06-10T04:21:02.739Z,38.46
2019-06-10T04:23:33.470Z,38.44
2019-06-10T04:26:03.040Z,38.44
2019-06-10T04:28:33.745Z,38.35
2019-06-10T04:31:03.370Z,38.30
2019-06-10T04:33:33.116Z,38.22
2019-06-10T04:36:03.141Z,38.16
2019-06-10T04:38:33.060Z,38.12
2019-06-10T04:41:03.787Z,38.07
2019-06-10T04:43:33.298Z,38.01
2019-06-10T04:46:02.826Z,37.93
2019-06-10T04:48:32.951Z,37.85
2019-06-10T04:51:03.025Z,37.80
2019-06-10T04:53:33.205Z,37.71
2019-06-10T04:56:03.301Z,37.66
2019-06-10T04:58:33.449Z,37.61
2019-06-10T05:01:03.431Z,37.53
2019-06-10T05:03:33.273Z,37.49
2019-06-10T05:06:03.492Z,37.42
2019-06-10T05:08:33.936Z,37.46
2019-06-10T05:11:03.935Z,37.46
2019-06-10T05:13:33.928Z,37.38
2019-06-10T05:16:03.953Z,37.36
2019-06-10T05:18:33.567Z,37.25
2019-06-10T05:21:04.234Z,37.24
2019-06-10T05:23:33.758Z,37.21
2019-06-10T05:26:03.211Z,37.16
2019-06-10T05:28:34.130Z,37.08
2019-06-10T05:31:03.961Z,37.01
2019-06-10T05:33:33.726Z,36.99
2019-06-10T05:36:03.319Z,36.92
2019-06-10T05:38:35.049Z,36.90
2019-06-10T05:41:04.099Z,36.82
2019-06-10T05:43:34.659Z,36.76
2019-06-10T05:46:04.438Z,36.70
2019-06-10T05:48:35.139Z,36.65
2019-06-10T05:51:06.854Z,36.59
2019-06-10T05:53:35.831Z,36.57
2019-06-10T05:56:05.356Z,36.51
2019-06-10T05:58:35.991Z,36.43
2019-06-10T06:01:05.729Z,36.38
2019-06-10T06:03:37.043Z,36.33
2019-06-10T06:06:06.473Z,36.28
2019-06-10T06:08:35.933Z,36.22
2019-06-10T06:11:05.523Z,36.17
2019-06-10T06:13:36.098Z,36.11
2019-06-10T06:16:05.828Z,36.08
2019-06-10T06:18:36.482Z,36.02
2019-06-10T06:21:22.438Z,36.02
2019-06-10T06:23:39.016Z,36.10
2019-06-10T06:26:08.513Z,36.11
2019-06-10T06:28:38.298Z,36.09
2019-06-10T06:31:07.985Z,36.23
2019-06-10T06:33:39.706Z,36.18
2019-06-10T06:36:08.823Z,36.37
2019-06-10T06:38:38.505Z,36.26
2019-06-10T06:41:07.966Z,36.15
2019-06-10T06:43:42.007Z,36.10
2019-06-10T06:46:08.760Z,36.04
2019-06-10T06:48:40.319Z,36.00
2019-06-10T06:51:09.479Z,35.98
2019-06-10T06:53:47.366Z,36.02
2019-06-10T06:56:12.407Z,36.05
2019-06-10T06:58:43.216Z,36.03
2019-06-10T07:01:14.626Z,36.02
2019-06-10T07:03:45.069Z,36.03
2019-06-10T07:06:16.026Z,36.22
2019-06-10T07:09:00.357Z,36.38
2019-06-10T07:11:22.390Z,36.48
2019-06-10T07:13:53.560Z,36.63
2019-06-10T07:16:23.226Z,36.63
2019-06-10T07:18:53.981Z,36.56
2019-06-10T07:21:23.712Z,36.50
2019-06-10T07:23:53.282Z,36.40
2019-06-10T07:26:22.893Z,36.31
2019-06-10T07:28:53.791Z,36.26
2019-06-10T07:31:27.679Z,36.15
2019-06-10T07:33:54.880Z,36.08
2019-06-10T07:36:24.463Z,35.98
2019-06-10T07:38:54.217Z,35.93
2019-06-10T07:41:23.799Z,35.85
2019-06-10T07:43:53.595Z,35.75
2019-06-10T07:46:23.293Z,35.69
2019-06-10T07:48:56.487Z,35.62
2019-06-10T07:51:24.078Z,35.58
2019-06-10T07:53:53.594Z,35.49
2019-06-10T07:56:23.574Z,35.44
2019-06-10T07:58:53.243Z,35.38
2019-06-10T08:01:23.268Z,35.31
2019-06-10T08:03:53.050Z,35.26
2019-06-10T08:06:23.073Z,35.23
2019-06-10T08:08:53.385Z,35.17
2019-06-10T08:11:23.173Z,35.14
2019-06-10T08:13:53.961Z,35.09
2019-06-10T08:16:23.893Z,35.04
2019-06-10T08:19:20.003Z,35.00
2019-06-10T08:21:24.703Z,34.95
2019-06-10T08:23:55.051Z,34.93
2019-06-10T08:26:24.539Z,34.89
2019-06-10T08:28:54.063Z,34.87
2019-06-10T08:31:23.613Z,34.83
2019-06-10T08:33:53.706Z,34.80
2019-06-10T08:36:23.297Z,34.77
2019-06-10T08:38:53.092Z,34.73
2019-06-10T08:41:23.216Z,34.68
2019-06-10T08:43:53.145Z,34.65
2019-06-10T08:46:22.836Z,34.61
2019-06-10T08:48:52.709Z,34.57
2019-06-10T08:51:23.718Z,34.53
2019-06-10T08:53:53.471Z,34.51
2019-06-10T08:56:22.887Z,34.47
2019-06-10T08:58:54.023Z,34.46
2019-06-10T09:01:23.813Z,34.42
2019-06-10T09:03:53.852Z,34.37
2019-06-10T09:06:23.467Z,34.35
2019-06-10T09:08:54.553Z,34.30
2019-06-10T09:11:24.278Z,34.29
2019-06-10T09:13:53.728Z,34.26
2019-06-10T09:16:23.266Z,34.21
2019-06-10T09:18:55.284Z,34.19
2019-06-10T09:21:23.958Z,34.17
2019-06-10T09:23:59.771Z,34.11
2019-06-10T09:26:24.740Z,34.11
2019-06-10T09:28:56.620Z,34.09
2019-06-10T09:31:25.473Z,34.07
2019-06-10T09:33:57.002Z,34.04
2019-06-10T09:36:26.383Z,34.04
2019-06-10T09:38:55.957Z,34.02
2019-06-10T09:41:36.317Z,34.00
2019-06-10T09:43:57.249Z,33.98
2019-06-10T09:46:29.016Z,33.95
2019-06-10T09:48:59.163Z,33.92
2019-06-10T09:51:28.714Z,33.92
2019-06-10T09:54:03.151Z,33.90
2019-06-10T09:56:29.416Z,33.87
2019-06-10T09:58:58.905Z,33.86
2019-06-10T10:01:32.520Z,33.84
2019-06-10T10:04:01.567Z,33.84
2019-06-10T10:06:32.692Z,33.83
2019-06-10T10:09:04.161Z,33.83
2019-06-10T10:11:33.707Z,33.82
2019-06-10T10:14:06.299Z,33.80
2019-06-10T10:16:34.610Z,33.79
2019-06-10T10:19:05.313Z,33.78
2019-06-10T10:21:35.056Z,33.79
2019-06-10T10:24:10.488Z,33.76
2019-06-10T10:26:35.833Z,33.75
2019-06-10T10:29:06.578Z,33.75
2019-06-10T10:31:36.077Z,33.75
2019-06-10T10:34:05.616Z,33.75
2019-06-10T10:36:35.076Z,33.74
2019-06-10T10:39:06.322Z,33.76
2019-06-10T10:41:35.765Z,33.73
2019-06-10T10:44:05.685Z,33.71
2019-06-10T10:46:35.240Z,33.70
2019-06-10T10:49:04.746Z,33.70
2019-06-10T10:51:34.183Z,33.69
2019-06-10T10:54:21.242Z,33.68
2019-06-10T10:56:34.881Z,33.67
2019-06-10T10:59:04.468Z,33.68
2019-06-10T11:01:34.199Z,33.66
2019-06-10T11:04:04.528Z,33.64
2019-06-10T11:06:34.216Z,33.67
2019-06-10T11:09:03.960Z,33.64
2019-06-10T11:11:33.721Z,33.64
2019-06-10T11:14:04.037Z,33.64
2019-06-10T11:16:33.565Z,33.64
2019-06-10T11:19:03.054Z,33.64
2019-06-10T11:21:33.025Z,33.63
2019-06-10T11:24:04.770Z,33.61
2019-06-10T11:26:33.955Z,33.61
2019-06-10T11:29:03.548Z,33.61
2019-06-10T11:31:33.091Z,33.59
2019-06-10T11:34:03.184Z,33.60
2019-06-10T11:36:32.849Z,33.60
2019-06-10T11:39:02.914Z,33.59
2019-06-10T11:41:32.654Z,33.56
2019-06-10T11:44:02.154Z,33.55
2019-06-10T11:46:32.580Z,33.57
2019-06-10T11:49:03.990Z,33.56
2019-06-10T11:51:33.583Z,33.56
2019-06-10T11:54:03.561Z,33.54
2019-06-10T11:56:33.746Z,33.54
2019-06-10T11:59:09.220Z,33.54
2019-06-10T12:01:34.589Z,33.52
2019-06-10T12:04:04.684Z,33.51
2019-06-10T12:06:34.357Z,33.52
2019-06-10T12:09:06.994Z,33.50
2019-06-10T12:11:36.501Z,33.50
2019-06-10T12:14:07.327Z,33.50
2019-06-10T12:19:08.474Z,33.48
2019-06-10T12:21:38.106Z,33.48
2019-06-10T12:24:07.656Z,33.46
2019-06-10T12:26:37.657Z,33.46
2019-06-10T12:29:07.234Z,33.46
2019-06-10T12:31:36.770Z,33.43
2019-06-10T12:34:06.340Z,33.41
2019-06-10T12:36:35.890Z,33.43
2019-06-10T12:39:10.760Z,33.38
2019-06-10T12:41:42.707Z,33.38
2019-06-10T12:44:12.364Z,33.40
2019-06-10T12:46:43.381Z,33.39
2019-06-10T12:49:14.214Z,33.37
2019-06-10T12:51:44.185Z,33.38
2019-06-10T12:54:13.737Z,33.36
2019-06-10T12:56:43.373Z,33.34
2019-06-10T12:59:13.734Z,33.32
2019-06-10T13:01:44.712Z,33.32
2019-06-10T13:04:15.180Z,33.34
2019-06-10T13:06:46.772Z,33.30
2019-06-10T13:09:17.135Z,33.30
2019-06-10T13:11:46.721Z,33.28
2019-06-10T13:14:18.397Z,33.30
2019-06-10T13:16:47.811Z,33.30
2019-06-10T13:19:17.347Z,33.28
2019-06-10T13:21:46.866Z,33.25
2019-06-10T13:24:16.357Z,33.22
2019-06-10T13:26:45.885Z,33.26
2019-06-10T13:29:17.660Z,33.26
2019-06-10T13:31:46.532Z,33.24
2019-06-10T13:34:16.105Z,33.21
2019-06-10T13:36:45.543Z,33.21
2019-06-10T13:39:15.974Z,33.22
2019-06-10T13:41:45.462Z,33.20
2019-06-10T13:44:16.626Z,33.19
2019-06-10T13:46:46.136Z,33.18
2019-06-10T13:49:15.685Z,33.18
2019-06-10T13:51:45.169Z,33.19
2019-06-10T13:54:14.612Z,33.20
2019-06-10T13:56:47.562Z,33.17
2019-06-10T13:59:15.476Z,33.14
2019-06-10T14:01:45.219Z,33.15
2019-06-10T14:04:21.517Z,33.14
2019-06-10T14:06:50.360Z,33.11
2019-06-10T14:09:17.306Z,33.12
2019-06-10T14:11:46.796Z,33.10
2019-06-10T14:14:18.151Z,33.10
2019-06-10T14:16:47.590Z,33.09
2019-06-10T14:19:17.130Z,33.07
2019-06-10T14:21:46.601Z,33.05
2019-06-10T14:24:16.448Z,33.06
2019-06-10T14:26:45.981Z,33.01
2019-06-10T14:29:16.296Z,33.00
2019-06-10T14:31:47.871Z,32.99
2019-06-10T14:34:18.763Z,33.00
2019-06-10T14:36:48.520Z,33.00
2019-06-10T14:39:18.097Z,33.01
2019-06-10T14:41:47.622Z,32.97
2019-06-10T14:44:17.961Z,32.99
2019-06-10T14:46:47.867Z,32.99
2019-06-10T14:49:17.369Z,32.99
2019-06-10T14:51:46.861Z,33.02
2019-06-10T14:54:18.309Z,33.03
2019-06-10T14:56:53.690Z,33.01
2019-06-10T14:59:18.764Z,33.01
2019-06-10T15:01:48.456Z,33.02
2019-06-10T15:04:19.517Z,33.02
2019-06-10T15:06:49.080Z,33.03
2019-06-10T15:09:19.763Z,33.04
2019-06-10T15:11:53.919Z,33.06
2019-06-10T15:14:23.504Z,33.08
2019-06-10T15:16:53.561Z,33.08
2019-06-10T15:19:28.737Z,33.06
2019-06-10T15:21:54.416Z,33.05
2019-06-10T15:24:24.017Z,32.98
2019-06-10T15:27:08.957Z,33.03
2019-06-10T15:29:24.774Z,33.05
2019-06-10T15:32:08.996Z,32.95
2019-06-10T15:34:25.659Z,32.97
2019-06-10T15:36:55.170Z,32.98
2019-06-10T15:39:24.676Z,32.91
2019-06-10T15:41:55.130Z,32.90
2019-06-10T15:44:47.477Z,32.79
2019-06-10T15:46:58.187Z,32.79
2019-06-10T15:49:28.073Z,32.80
2019-06-10T15:51:57.661Z,32.77
2019-06-10T15:54:27.152Z,32.75
2019-06-10T15:56:56.850Z,32.65
2019-06-10T15:59:26.359Z,32.66
2019-06-10T16:01:55.949Z,32.67
2019-06-10T16:04:29.498Z,32.68
2019-06-10T16:06:56.926Z,32.73
2019-06-10T16:09:26.412Z,32.75
2019-06-10T16:11:55.970Z,32.76
2019-06-10T16:14:25.555Z,32.80
2019-06-10T16:16:55.098Z,32.84
2019-06-10T16:19:24.649Z,33.03
2019-06-10T16:21:54.206Z,33.13
2019-06-10T16:24:27.574Z,33.27
2019-06-10T16:26:57.542Z,33.53
2019-06-10T16:29:27.167Z,33.61
2019-06-10T16:31:56.633Z,33.72
2019-06-10T16:34:28.793Z,34.12
2019-06-10T16:36:57.734Z,34.12
2019-06-10T16:39:27.260Z,34.47
2019-06-10T16:41:56.900Z,34.67
2019-06-10T16:44:28.319Z,34.77
2019-06-10T16:46:58.104Z,34.78
2019-06-10T16:49:27.625Z,34.86
2019-06-10T16:51:57.113Z,34.89
2019-06-10T16:54:27.148Z,34.98
2019-06-10T16:56:56.722Z,34.88
2019-06-10T16:59:27.519Z,34.94
2019-06-10T17:01:57.206Z,34.80
2019-06-10T17:04:27.729Z,34.96
2019-06-10T17:06:57.479Z,34.95
2019-06-10T17:09:27.817Z,34.88
2019-06-10T17:11:58.340Z,34.81
2019-06-10T17:14:27.901Z,34.79
2019-06-10T17:16:57.473Z,34.75
2019-06-10T17:19:28.642Z,34.76
2019-06-10T17:21:58.150Z,34.74
2019-06-10T17:24:29.395Z,34.75
2019-06-10T17:26:58.933Z,34.72
2019-06-10T17:29:29.283Z,34.73
2019-06-10T17:32:02.610Z,34.71
2019-06-10T17:34:33.616Z,34.68
2019-06-10T17:37:03.206Z,34.62
2019-06-10T17:39:34.507Z,34.57
2019-06-10T17:42:04.035Z,34.50
2019-06-10T17:44:33.616Z,34.43
2019-06-10T17:47:03.144Z,34.42
2019-06-10T17:49:34.654Z,34.35
2019-06-10T17:52:03.985Z,34.36
2019-06-10T17:54:33.547Z,34.36
2019-06-10T17:57:03.145Z,34.33
2019-06-10T17:59:34.642Z,34.28
2019-06-10T18:02:03.986Z,34.28
2019-06-10T18:04:33.902Z,34.28
2019-06-10T18:07:03.436Z,34.32
2019-06-10T18:09:36.641Z,34.28
2019-06-10T18:12:04.271Z,34.28
2019-06-10T18:14:35.866Z,34.25
2019-06-10T18:17:05.161Z,34.23
2019-06-10T18:19:37.350Z,34.21
2019-06-10T18:22:06.154Z,34.18
2019-06-10T18:24:35.709Z,34.18
2019-06-10T18:27:05.188Z,34.14
2019-06-10T18:29:36.913Z,34.13
2019-06-10T18:32:06.107Z,34.14
2019-06-10T18:34:37.883Z,34.13
2019-06-10T18:37:06.927Z,34.13
2019-06-10T18:39:36.550Z,34.11
2019-06-10T18:42:06.118Z,34.11
2019-06-10T18:44:37.423Z,34.13
2019-06-10T18:47:07.028Z,34.11
2019-06-10T18:49:37.544Z,34.07
2019-06-10T18:52:07.351Z,34.09
2019-06-10T18:54:37.385Z,34.10
2019-06-10T18:57:06.984Z,34.08
2019-06-10T18:59:37.919Z,34.07
2019-06-10T19:02:08.030Z,34.08
2019-06-10T19:04:38.773Z,34.07
2019-06-10T19:07:08.981Z,34.08
2019-06-10T19:09:40.541Z,34.10
2019-06-10T19:12:09.795Z,34.17
2019-06-10T19:14:39.867Z,34.11
2019-06-10T19:17:09.465Z,34.09
2019-06-10T19:19:40.988Z,34.11
2019-06-10T19:22:13.075Z,34.09
2019-06-10T19:24:44.575Z,34.11
2019-06-10T19:27:13.150Z,34.07
2019-06-10T19:29:50.086Z,34.10
2019-06-10T19:32:13.856Z,34.11
2019-06-10T19:34:48.192Z,34.08
2019-06-10T19:37:14.729Z,34.07
2019-06-10T19:39:50.605Z,34.04
2019-06-10T19:42:15.435Z,34.02
2019-06-10T19:44:46.025Z,33.99
2019-06-10T19:47:15.629Z,34.00
2019-06-10T19:49:45.288Z,33.98
2019-06-10T19:52:14.823Z,34.00
2019-06-10T19:54:45.526Z,34.00
2019-06-10T19:57:15.274Z,34.01
2019-06-10T20:00:03.255Z,34.02
2019-06-10T20:02:16.119Z,34.03
2019-06-10T20:04:45.761Z,34.02
2019-06-10T20:07:15.266Z,34.02
2019-06-10T20:09:46.281Z,34.04
2019-06-10T20:12:15.885Z,34.03
2019-06-10T20:14:46.724Z,34.03
2019-06-10T20:17:16.740Z,34.08
2019-06-10T20:19:46.243Z,34.07
2019-06-10T20:22:15.841Z,34.08
2019-06-10T20:24:46.793Z,34.07
2019-06-10T20:27:16.549Z,34.10
2019-06-10T20:29:46.106Z,34.14
2019-06-10T20:32:15.646Z,34.18
2019-06-10T20:34:45.362Z,34.19
2019-06-10T20:37:14.964Z,34.24
2019-06-10T20:39:45.943Z,34.26
2019-06-10T20:42:15.780Z,34.27
2019-06-10T20:44:46.282Z,34.28
2019-06-10T20:47:16.681Z,34.32
2019-06-10T20:49:49.509Z,34.31
2019-06-10T20:52:17.716Z,34.32
2019-06-10T20:54:48.737Z,34.34
2019-06-10T20:57:18.656Z,34.36
2019-06-10T20:59:49.847Z,34.36
2019-06-10T21:02:19.450Z,34.38
2019-06-10T21:04:50.056Z,34.39
2019-06-10T21:07:23.249Z,34.42
2019-06-10T21:09:54.570Z,34.38
2019-06-10T21:12:24.110Z,34.37
2019-06-10T21:14:53.591Z,34.38
2019-06-10T21:17:23.199Z,34.55
2019-06-10T21:19:53.777Z,34.69
2019-06-10T21:22:25.640Z,34.86
2019-06-10T21:24:55.263Z,34.99
2019-06-10T21:27:24.758Z,35.06
2019-06-10T21:29:54.903Z,35.10
2019-06-10T21:32:24.518Z,35.11
2019-06-10T21:34:54.100Z,35.11
2019-06-10T21:37:23.571Z,35.17
2019-06-10T21:39:55.475Z,35.07
2019-06-10T21:42:24.383Z,35.01
2019-06-10T21:44:54.059Z,35.01
2019-06-10T21:47:23.626Z,35.02
2019-06-10T21:49:54.899Z,35.12
2019-06-10T21:52:24.505Z,35.13
2019-06-10T21:54:53.964Z,35.12
2019-06-10T21:57:23.578Z,35.10
2019-06-10T21:59:54.978Z,35.04
2019-06-10T22:02:24.268Z,35.02
2019-06-10T22:04:55.516Z,34.99
2019-06-10T22:07:25.155Z,34.98
2019-06-10T22:09:56.196Z,34.96
2019-06-10T22:12:25.916Z,34.95
2019-06-10T22:14:55.464Z,34.94
2019-06-10T22:17:24.956Z,34.92
2019-06-10T22:19:56.330Z,34.92
2019-06-10T22:22:25.802Z,34.92
2019-06-10T22:24:56.507Z,34.91
2019-06-10T22:27:26.253Z,34.88
2019-06-10T22:29:57.156Z,34.87
2019-06-10T22:32:26.765Z,34.87
2019-06-10T22:34:57.130Z,34.88
2019-06-10T22:37:26.863Z,34.86
2019-06-10T22:39:57.902Z,34.85
2019-06-10T22:42:27.647Z,34.84
2019-06-10T22:44:58.057Z,34.84
2019-06-10T22:47:27.796Z,34.86
2019-06-10T22:49:58.438Z,34.85
2019-06-10T22:52:28.503Z,34.84
2019-06-10T22:54:58.632Z,34.82
2019-06-10T22:57:28.342Z,34.83
2019-06-10T22:59:59.399Z,34.85
2019-06-10T23:02:29.177Z,34.85
2019-06-10T23:05:01.182Z,34.84
2019-06-10T23:07:30.159Z,34.85
2019-06-10T23:09:59.843Z,34.84
2019-06-10T23:12:29.339Z,34.85
2019-06-10T23:14:59.352Z,34.83
2019-06-10T23:17:29.014Z,34.85
2019-06-10T23:19:59.781Z,34.86
2019-06-10T23:22:29.360Z,34.85
2019-06-10T23:25:00.497Z,34.86
2019-06-10T23:27:30.160Z,34.88
2019-06-10T23:30:00.853Z,34.89
2019-06-10T23:32:32.796Z,34.89
2019-06-10T23:35:02.203Z,34.89
2019-06-10T23:37:32.302Z,34.88
2019-06-10T23:40:04.250Z,34.91
2019-06-10T23:42:33.222Z,34.91
2019-06-10T23:45:04.990Z,34.90
2019-06-10T23:47:34.166Z,34.92
2019-06-10T23:50:04.447Z,34.92
2019-06-10T23:52:34.123Z,34.92
2019-06-10T23:55:04.580Z,34.92
2019-06-10T23:57:34.280Z,34.93
